Time;durP1;ratioP1;P1;durP2;ratioP2;P2;SDS_P1;SDS_P2;PMS_P1;PMS_P2;Temp;Humidity;BMP_temperature;BMP_pressure;BME280_temperature;BME280_humidity;BME280_pressure;Samples;Min_cycle;Max_cycle;Signal;HPM_P1;HPM_P2
2023/07/21 00:00:22;;;;;;;3.22;1.60;;;17.80;95.80;;;;;;5052262;28;20209;-59
2023/07/21 00:02:50;;;;;;;1.90;1.27;;;17.90;96.00;;;;;;5052231;28;20238;-60
2023/07/21 00:05:17;;;;;;;8.63;1.63;;;17.90;96.20;;;;;;5052058;28;20230;-58
2023/07/21 00:07:44;;;;;;;2.15;1.30;;;17.90;96.20;;;;;;5052258;28;20206;-60
2023/07/21 00:10:12;;;;;;;3.10;1.40;;;18.00;96.40;;;;;;5052176;28;20581;-59
2023/07/21 00:12:42;;;;;;;2.15;1.40;;;17.90;96.40;;;;;;5051947;28;20628;-59
2023/07/21 00:15:10;;;;;;;2.60;1.55;;;18.00;96.30;;;;;;5052499;28;20247;-58
2023/07/21 00:17:37;;;;;;;2.50;1.80;;;17.90;96.20;;;;;;5051566;28;20705;-59
2023/07/21 00:20:12;;;;;;;1.48;1.38;;;18.00;96.20;;;;;;5051881;28;20216;-58
2023/07/21 00:22:39;;;;;;;3.10;1.42;;;18.00;96.30;;;;;;5051907;28;20209;-59
2023/07/21 00:25:10;;;;;;;2.95;1.63;;;17.90;96.30;;;;;;5080601;22;20306;-59
2023/07/21 00:27:38;;;;;;;5.90;1.40;;;18.00;96.30;;;;;;5067643;28;20580;-59
2023/07/21 00:30:08;;;;;;;2.13;1.30;;;18.00;96.30;;;;;;5072165;28;20201;-59
2023/07/21 00:32:35;;;;;;;1.88;1.48;;;18.00;96.40;;;;;;5072119;28;20246;-61
2023/07/21 00:35:03;;;;;;;4.10;1.27;;;18.00;96.50;;;;;;5071735;28;20775;-59
2023/07/21 00:37:31;;;;;;;4.97;1.33;;;18.00;96.70;;;;;;5071312;28;20260;-59
2023/07/21 00:39:58;;;;;;;5.10;1.48;;;17.90;96.70;;;;;;5072141;28;20232;-58
2023/07/21 00:42:24;;;;;;;2.72;1.48;;;17.90;96.80;;;;;;5072029;28;20581;-60
2023/07/21 00:44:51;;;;;;;2.47;1.27;;;17.90;96.90;;;;;;5071843;28;20229;-61
2023/07/21 00:47:18;;;;;;;3.22;1.35;;;17.90;96.90;;;;;;5071540;28;20201;-60
2023/07/21 00:49:45;;;;;;;3.40;1.60;;;17.90;97.10;;;;;;5071704;28;20207;-60
2023/07/21 00:52:13;;;;;;;1.45;1.20;;;17.90;97.10;;;;;;5071622;28;20387;-60
2023/07/21 00:54:41;;;;;;;3.63;1.50;;;17.80;97.00;;;;;;5071831;28;20236;-60
2023/07/21 00:57:09;;;;;;;1.55;1.20;;;17.90;97.10;;;;;;5071736;28;20311;-59
2023/07/21 00:59:36;;;;;;;2.08;1.45;;;17.90;97.10;;;;;;5071863;28;20204;-60
2023/07/21 01:02:02;;;;;;;2.50;1.75;;;18.00;97.10;;;;;;5071579;28;20702;-59
2023/07/21 01:04:30;;;;;;;2.05;1.45;;;18.10;96.90;;;;;;5071162;28;20239;-60
2023/07/21 01:06:57;;;;;;;1.42;1.10;;;18.10;96.70;;;;;;5071417;28;20327;-59
2023/07/21 01:09:26;;;;;;;1.65;1.40;;;18.10;96.70;;;;;;5071741;28;20239;-59
2023/07/21 01:11:54;;;;;;;2.60;1.60;;;18.20;96.70;;;;;;5071622;28;20205;-60
2023/07/21 01:14:22;;;;;;;5.28;1.50;;;18.20;96.60;;;;;;5071647;28;20252;-60
2023/07/21 01:16:49;;;;;;;2.03;1.40;;;18.30;96.70;;;;;;5071039;28;20641;-59
2023/07/21 01:19:16;;;;;;;2.22;1.33;;;18.30;96.70;;;;;;5071359;28;20212;-59
2023/07/21 01:21:48;;;;;;;2.03;1.27;;;18.30;97.00;;;;;;5071464;28;20718;-59
2023/07/21 01:24:26;;;;;;;2.13;1.30;;;18.30;96.80;;;;;;5071347;28;20232;-59
2023/07/21 01:26:56;;;;;;;1.80;1.30;;;18.30;96.80;;;;;;5071005;28;20643;-59
2023/07/21 01:29:24;;;;;;;2.17;1.50;;;18.30;96.90;;;;;;5071635;28;20208;-58
2023/07/21 01:31:52;;;;;;;3.03;1.30;;;18.20;97.20;;;;;;5072115;28;20251;-61
2023/07/21 01:34:19;;;;;;;6.97;1.52;;;18.20;97.20;;;;;;5071449;28;20224;-59
2023/07/21 01:36:46;;;;;;;2.60;1.52;;;18.20;97.40;;;;;;5073372;28;20674;-60
2023/07/21 01:39:13;;;;;;;2.90;1.40;;;18.20;97.70;;;;;;5075311;28;20208;-59
2023/07/21 01:41:40;;;;;;;1.50;1.27;;;18.10;97.80;;;;;;5075132;28;20217;-59
2023/07/21 01:44:09;;;;;;;1.77;1.40;;;18.10;98.00;;;;;;5075131;28;20267;-59
2023/07/21 01:46:35;;;;;;;3.15;1.45;;;17.90;98.30;;;;;;5075088;28;20207;-59
2023/07/21 01:49:03;;;;;;;2.55;1.52;;;17.80;98.90;;;;;;5075084;28;20208;-61
2023/07/21 01:51:33;;;;;;;2.15;1.40;;;17.70;99.40;;;;;;5075151;28;20208;-60
2023/07/21 01:54:06;;;;;;;2.10;1.65;;;17.70;99.60;;;;;;5074805;28;20324;-60
2023/07/21 01:56:39;;;;;;;2.92;1.55;;;17.70;99.70;;;;;;5074774;28;20209;-62
2023/07/21 01:59:11;;;;;;;5.22;1.63;;;17.70;99.90;;;;;;5075074;28;20205;-59
2023/07/21 02:01:39;;;;;;;2.42;1.25;;;17.70;99.90;;;;;;5074729;28;20205;-60
2023/07/21 02:04:05;;;;;;;2.92;1.08;;;17.70;99.90;;;;;;5074570;28;20232;-60
2023/07/21 02:06:32;;;;;;;1.20;1.10;;;17.70;99.90;;;;;;5074278;28;20205;-60
2023/07/21 02:08:59;;;;;;;1.77;1.15;;;17.70;99.90;;;;;;5074478;28;20295;-61
2023/07/21 02:11:25;;;;;;;3.33;1.17;;;17.70;99.90;;;;;;5074806;28;20213;-60
2023/07/21 02:13:52;;;;;;;2.00;1.60;;;17.70;99.90;;;;;;5074426;28;20229;-59
2023/07/21 02:16:20;;;;;;;1.50;1.38;;;17.70;99.90;;;;;;5074258;28;20713;-60
2023/07/21 02:18:47;;;;;;;1.88;1.52;;;17.70;99.90;;;;;;5074316;28;20809;-61
2023/07/21 02:21:14;;;;;;;2.30;1.40;;;17.70;99.90;;;;;;5074352;28;20208;-61
2023/07/21 02:23:40;;;;;;;2.65;1.45;;;17.70;99.90;;;;;;5074007;28;20232;-59
2023/07/21 02:26:07;;;;;;;3.13;1.52;;;17.70;99.90;;;;;;5074219;28;20201;-61
2023/07/21 02:28:34;;;;;;;2.17;1.73;;;17.80;99.90;;;;;;5074308;28;20224;-60
2023/07/21 02:31:03;;;;;;;1.92;1.42;;;17.80;99.90;;;;;;5074164;28;20209;-60
2023/07/21 02:33:32;;;;;;;2.00;1.38;;;17.90;99.90;;;;;;5073998;28;20672;-60
2023/07/21 02:35:59;;;;;;;1.67;1.20;;;17.90;99.90;;;;;;5073748;28;20603;-60
2023/07/21 02:38:26;;;;;;;2.30;1.48;;;17.90;99.90;;;;;;5073909;28;20687;-60
2023/07/21 02:40:53;;;;;;;2.05;1.45;;;17.90;99.90;;;;;;5074011;28;20209;-61
2023/07/21 02:43:22;;;;;;;2.45;1.55;;;17.90;99.90;;;;;;5074028;28;20216;-61
2023/07/21 02:45:50;;;;;;;3.00;1.67;;;17.90;99.90;;;;;;5073626;28;20687;-59
2023/07/21 02:48:18;;;;;;;1.75;1.52;;;17.90;99.90;;;;;;5073239;28;20236;-61
2023/07/21 02:50:48;;;;;;;2.75;1.70;;;17.90;99.90;;;;;;5073819;28;20201;-60
2023/07/21 02:53:15;;;;;;;3.35;1.77;;;17.90;99.90;;;;;;5074034;28;20235;-60
2023/07/21 02:55:42;;;;;;;1.80;1.60;;;18.00;99.90;;;;;;5073747;28;20236;-61
2023/07/21 02:58:12;;;;;;;2.70;1.45;;;18.00;99.90;;;;;;5073607;28;20225;-61
2023/07/21 03:00:40;;;;;;;3.20;1.40;;;18.00;99.90;;;;;;5073481;28;20201;-59
2023/07/21 03:03:07;;;;;;;2.05;1.50;;;18.00;99.90;;;;;;5073556;28;20330;-59
2023/07/21 03:05:34;;;;;;;1.77;1.35;;;18.00;99.90;;;;;;5073304;28;20295;-61
2023/07/21 03:08:03;;;;;;;2.60;1.25;;;18.10;99.90;;;;;;5073116;28;20197;-60
2023/07/21 03:10:30;;;;;;;1.83;1.40;;;18.10;99.90;;;;;;5073333;28;20710;-60
2023/07/21 03:12:57;;;;;;;3.25;1.67;;;18.00;99.90;;;;;;5073409;28;20216;-59
2023/07/21 03:15:23;;;;;;;4.07;1.50;;;17.90;99.90;;;;;;5073248;28;20232;-60
2023/07/21 03:17:50;;;;;;;1.75;1.65;;;17.90;99.90;;;;;;5072925;28;20627;-60
2023/07/21 03:20:17;;;;;;;6.53;1.70;;;17.80;99.90;;;;;;5073455;28;20209;-60
2023/07/21 03:22:45;;;;;;;4.65;2.97;;;17.80;99.90;;;;;;5073125;28;20586;-61
2023/07/21 03:25:13;;;;;;;4.45;1.52;;;17.70;99.90;;;;;;5073028;28;20236;-60
2023/07/21 03:27:40;;;;;;;2.72;1.60;;;17.70;99.90;;;;;;5072774;28;20240;-60
2023/07/21 03:30:09;;;;;;;3.25;1.67;;;17.70;99.90;;;;;;5073028;28;20209;-60
2023/07/21 03:32:36;;;;;;;3.33;1.70;;;17.70;99.90;;;;;;5072857;28;20283;-60
2023/07/21 03:35:04;;;;;;;2.53;1.67;;;17.60;99.90;;;;;;5073012;28;20228;-61
2023/07/21 03:37:34;;;;;;;5.72;1.42;;;17.60;99.90;;;;;;5072764;28;20263;-61
2023/07/21 03:40:02;;;;;;;2.17;1.40;;;17.50;99.90;;;;;;5072788;28;20209;-61
2023/07/21 03:42:30;;;;;;;3.45;1.73;;;17.50;99.90;;;;;;5072614;28;20289;-61
2023/07/21 03:44:57;;;;;;;2.13;1.80;;;17.50;99.90;;;;;;5072419;28;20228;-61
2023/07/21 03:47:24;;;;;;;2.65;1.70;;;17.40;99.90;;;;;;5072532;28;20276;-59
2023/07/21 03:49:51;;;;;;;4.22;1.63;;;17.40;99.90;;;;;;5072689;28;20228;-59
2023/07/21 03:52:18;;;;;;;1.60;1.42;;;17.40;99.90;;;;;;5072709;28;20233;-60
2023/07/21 03:54:44;;;;;;;2.45;1.60;;;17.40;99.90;;;;;;5072543;28;20263;-60
2023/07/21 03:57:11;;;;;;;3.08;1.90;;;17.40;99.90;;;;;;5072245;28;20232;-60
2023/07/21 03:59:41;;;;;;;2.08;1.55;;;17.30;99.90;;;;;;5071276;28;20209;-61
2023/07/21 04:02:08;;;;;;;3.33;1.70;;;17.40;99.90;;;;;;5072652;28;20204;-60
2023/07/21 04:04:35;;;;;;;3.80;1.60;;;17.50;99.90;;;;;;5072641;28;20308;-59
2023/07/21 04:07:01;;;;;;;2.60;1.77;;;17.50;99.90;;;;;;5072080;28;20204;-61
2023/07/21 04:09:28;;;;;;;2.05;1.70;;;17.50;99.90;;;;;;5072378;28;20224;-61
2023/07/21 04:11:55;;;;;;;2.38;2.15;;;17.50;99.90;;;;;;5072723;28;20200;-59
2023/07/21 04:14:22;;;;;;;3.25;1.77;;;17.50;99.90;;;;;;5072168;28;20232;-61
2023/07/21 04:16:50;;;;;;;1.70;1.50;;;17.50;99.90;;;;;;5072289;28;20212;-61
2023/07/21 04:19:17;;;;;;;2.47;1.70;;;17.60;99.90;;;;;;5072323;28;20205;-60
2023/07/21 04:21:44;;;;;;;2.60;1.80;;;17.60;99.90;;;;;;5072155;28;20243;-60
2023/07/21 04:24:10;;;;;;;5.18;1.70;;;17.60;99.90;;;;;;5071914;28;20310;-60
2023/07/21 04:26:37;;;;;;;2.83;2.00;;;17.60;99.90;;;;;;5071663;28;20212;-59
2023/07/21 04:29:04;;;;;;;4.50;1.75;;;17.70;99.90;;;;;;5071983;28;20450;-59
2023/07/21 04:31:31;;;;;;;1.70;1.48;;;17.80;99.90;;;;;;5072101;28;20212;-60
2023/07/21 04:33:59;;;;;;;2.50;1.67;;;17.90;99.90;;;;;;5071824;28;20225;-61
2023/07/21 04:36:27;;;;;;;1.98;1.50;;;18.00;99.90;;;;;;5071522;28;20673;-59
2023/07/21 04:38:53;;;;;;;4.63;1.77;;;18.20;99.90;;;;;;5071827;28;20204;-60
2023/07/21 04:41:21;;;;;;;3.33;1.60;;;18.40;99.90;;;;;;5071632;28;20251;-61
2023/07/21 04:43:47;;;;;;;1.98;1.55;;;18.50;99.90;;;;;;5071865;28;20256;-60
2023/07/21 04:46:14;;;;;;;3.88;2.00;;;18.60;99.90;;;;;;5071641;28;20214;-61
2023/07/21 04:48:43;;;;;;;2.17;1.60;;;18.80;99.90;;;;;;5071521;28;20232;-60
2023/07/21 04:51:11;;;;;;;2.40;1.73;;;18.90;99.90;;;;;;5071547;28;20201;-60
2023/07/21 04:53:38;;;;;;;2.00;1.50;;;19.20;99.90;;;;;;5071399;28;20322;-60
2023/07/21 04:56:05;;;;;;;2.05;1.45;;;19.50;99.20;;;;;;5071459;28;20209;-60
2023/07/21 04:58:32;;;;;;;3.15;1.38;;;19.80;98.40;;;;;;5071590;28;20207;-60
2023/07/21 05:00:59;;;;;;;1.80;1.50;;;20.00;97.40;;;;;;5071437;28;20637;-60
2023/07/21 05:03:26;;;;;;;3.75;1.65;;;20.20;97.00;;;;;;5071336;28;20284;-60
2023/07/21 05:05:53;;;;;;;4.22;1.70;;;20.30;97.10;;;;;;5071064;28;20209;-59
2023/07/21 05:08:21;;;;;;;4.82;1.60;;;20.40;97.20;;;;;;5071151;28;20224;-60
2023/07/21 05:10:47;;;;;;;3.40;1.77;;;20.60;97.10;;;;;;5071029;28;20281;-60
2023/07/21 05:13:14;;;;;;;7.10;3.92;;;20.60;96.70;;;;;;5071511;28;20205;-61
2023/07/21 05:15:42;;;;;;;7.22;2.05;;;20.80;96.60;;;;;;5070985;28;20262;-60
2023/07/21 05:18:10;;;;;;;4.18;1.80;;;21.00;96.60;;;;;;5070924;28;20208;-60
2023/07/21 05:20:40;;;;;;;3.60;1.90;;;21.20;96.50;;;;;;5071208;28;20224;-60
2023/07/21 05:23:07;;;;;;;3.03;1.75;;;21.40;95.60;;;;;;5071136;28;20258;-60
2023/07/21 05:25:35;;;;;;;3.28;1.70;;;21.50;94.60;;;;;;5071099;28;20259;-61
2023/07/21 05:28:02;;;;;;;5.35;1.75;;;21.60;94.00;;;;;;5070770;28;20763;-60
2023/07/21 05:30:28;;;;;;;3.05;2.05;;;21.60;93.70;;;;;;5071307;28;20213;-62
2023/07/21 05:32:56;;;;;;;3.80;1.85;;;21.70;93.30;;;;;;5070864;28;20287;-59
2023/07/21 05:35:23;;;;;;;2.67;1.70;;;21.80;93.30;;;;;;5070768;28;20643;-59
2023/07/21 05:37:50;;;;;;;2.30;1.75;;;21.90;93.20;;;;;;5070896;28;20545;-60
2023/07/21 05:40:16;;;;;;;4.10;2.03;;;21.90;92.80;;;;;;5071009;28;20204;-60
2023/07/21 05:42:47;;;;;;;3.08;1.63;;;22.00;92.90;;;;;;5071003;28;20208;-60
2023/07/21 05:45:14;;;;;;;2.92;1.70;;;22.00;93.00;;;;;;5071016;28;20221;-61
2023/07/21 05:47:41;;;;;;;4.45;3.88;;;22.10;92.80;;;;;;5070784;28;20200;-60
2023/07/21 05:50:08;;;;;;;2.03;1.63;;;22.10;93.00;;;;;;5070512;28;20665;-58
2023/07/21 05:52:35;;;;;;;3.42;1.80;;;22.20;92.70;;;;;;5070845;28;20687;-60
2023/07/21 05:55:03;;;;;;;2.58;1.85;;;22.30;92.70;;;;;;5070818;28;20236;-59
2023/07/21 05:57:29;;;;;;;4.05;1.88;;;22.40;92.50;;;;;;5070593;28;20204;-59
2023/07/21 05:59:58;;;;;;;2.28;1.80;;;22.60;92.60;;;;;;5070672;28;20204;-60
2023/07/21 06:02:25;;;;;;;7.22;2.00;;;22.80;92.10;;;;;;5071102;28;20212;-58
2023/07/21 06:04:57;;;;;;;4.85;1.95;;;23.10;91.90;;;;;;5070925;28;20225;-58
2023/07/21 06:07:24;;;;;;;2.35;1.92;;;23.50;90.80;;;;;;5070795;28;20295;-61
2023/07/21 06:09:51;;;;;;;3.72;1.52;;;23.70;90.30;;;;;;5070805;28;20987;-61
2023/07/21 06:12:18;;;;;;;4.57;2.15;;;23.70;90.10;;;;;;5070837;28;20212;-55
2023/07/21 06:14:45;;;;;;;2.83;1.95;;;23.70;89.50;;;;;;5070697;28;20260;-55
2023/07/21 06:17:13;;;;;;;4.13;1.90;;;24.00;88.30;;;;;;5070203;28;20616;-55
2023/07/21 06:19:39;;;;;;;2.83;1.83;;;24.20;87.20;;;;;;5070625;28;20223;-55
2023/07/21 06:22:07;;;;;;;2.65;2.08;;;23.90;87.20;;;;;;5071184;28;20201;-54
2023/07/21 06:24:34;;;;;;;2.38;1.50;;;23.90;88.30;;;;;;5074178;28;20617;-56
2023/07/21 06:27:00;;;;;;;3.30;2.00;;;24.50;86.90;;;;;;5073946;28;20212;-56
2023/07/21 06:29:27;;;;;;;3.58;1.92;;;25.70;82.90;;;;;;5073996;28;20549;-57
2023/07/21 06:31:54;;;;;;;3.25;1.98;;;26.50;79.80;;;;;;5073943;28;20205;-56
2023/07/21 06:34:23;;;;;;;5.72;2.03;;;27.10;77.30;;;;;;5073974;28;20263;-58
2023/07/21 06:36:50;;;;;;;3.63;1.95;;;27.90;73.30;;;;;;5073714;28;20205;-57
2023/07/21 06:39:17;;;;;;;3.70;1.73;;;28.10;71.00;;;;;;5074015;28;20284;-56
2023/07/21 06:41:44;;;;;;;5.15;2.10;;;27.90;70.20;;;;;;5073694;28;20209;-56
2023/07/21 06:44:11;;;;;;;4.65;2.35;;;27.80;69.30;;;;;;5073721;28;20226;-56
2023/07/21 06:46:37;;;;;;;3.90;1.70;;;27.90;68.40;;;;;;5073516;28;20205;-59
2023/07/21 06:49:04;;;;;;;8.02;1.80;;;28.40;67.20;;;;;;5073906;28;20233;-57
2023/07/21 06:51:32;;;;;;;5.50;2.08;;;29.10;64.40;;;;;;5073742;28;20688;-56
2023/07/21 06:53:59;;;;;;;3.25;2.10;;;29.10;63.30;;;;;;5073643;28;20232;-57
2023/07/21 06:56:25;;;;;;;3.55;2.00;;;28.90;65.00;;;;;;5073286;28;20209;-56
2023/07/21 06:58:52;;;;;;;3.72;2.08;;;29.90;63.30;;;;;;5073841;28;20299;-58
2023/07/21 07:01:18;;;;;;;2.78;1.80;;;30.80;61.60;;;;;;5073897;28;20209;-55
2023/07/21 07:03:45;;;;;;;4.60;1.60;;;30.80;59.20;;;;;;5073636;28;20225;-55
2023/07/21 07:06:12;;;;;;;3.83;1.70;;;30.30;60.60;;;;;;5073805;28;20201;-62
2023/07/21 07:08:40;;;;;;;4.95;1.98;;;30.30;59.70;;;;;;5074045;28;20221;-54
2023/07/21 07:11:08;;;;;;;2.20;1.42;;;30.10;60.40;;;;;;5073486;28;20208;-57
2023/07/21 07:13:35;;;;;;;2.70;1.90;;;29.80;61.60;;;;;;5073781;28;20205;-54
2023/07/21 07:16:03;;;;;;;3.65;1.75;;;30.10;61.80;;;;;;5073252;28;20205;-54
2023/07/21 07:18:29;;;;;;;2.65;1.50;;;31.10;60.40;;;;;;5073305;28;20201;-57
2023/07/21 07:20:56;;;;;;;4.00;1.50;;;32.30;57.10;;;;;;5073302;28;20209;-64
2023/07/21 07:23:24;;;;;;;3.78;1.52;;;33.90;52.70;;;;;;5073082;28;20653;-61
2023/07/21 07:25:54;;;;;;;3.03;1.65;;;35.50;50.50;;;;;;5072777;28;20205;-57
2023/07/21 07:28:22;;;;;;;3.28;1.70;;;36.70;47.70;;;;;;5073306;28;20209;-61
2023/07/21 07:30:49;;;;;;;2.45;1.60;;;36.50;46.80;;;;;;5073029;28;20212;-58
2023/07/21 07:33:17;;;;;;;2.58;1.60;;;35.50;47.40;;;;;;5072755;28;20212;-57
2023/07/21 07:35:48;;;;;;;3.08;1.60;;;34.40;48.60;;;;;;5072860;28;20587;-57
2023/07/21 07:38:15;;;;;;;2.72;1.65;;;33.10;50.90;;;;;;5072776;28;20240;-58
2023/07/21 07:40:42;;;;;;;2.92;1.55;;;32.20;52.70;;;;;;5072840;28;20209;-57
2023/07/21 07:43:10;;;;;;;3.13;1.90;;;32.60;52.30;;;;;;5072932;28;20212;-63
2023/07/21 07:45:37;;;;;;;5.07;1.92;;;33.20;51.10;;;;;;5072872;28;20221;-62
2023/07/21 07:48:04;;;;;;;2.63;1.52;;;33.30;50.60;;;;;;5072508;28;20216;-63
2023/07/21 07:50:31;;;;;;;7.70;2.10;;;32.20;51.70;;;;;;5072392;28;20232;-57
2023/07/21 07:52:59;;;;;;;2.60;1.77;;;30.90;53.90;;;;;;5072371;28;20204;-57
2023/07/21 07:55:28;;;;;;;3.45;1.92;;;30.10;55.20;;;;;;5072573;28;20229;-57
2023/07/21 07:57:55;;;;;;;3.10;1.80;;;30.20;55.20;;;;;;5071990;28;20657;-56
2023/07/21 08:00:24;;;;;;;4.93;1.70;;;31.20;54.80;;;;;;5072496;28;20231;-56
2023/07/21 08:02:50;;;;;;;6.30;2.00;;;32.20;53.00;;;;;;5072432;28;20227;-64
2023/07/21 08:05:17;;;;;;;3.22;1.77;;;33.00;51.40;;;;;;5072319;28;20232;-62
2023/07/21 08:07:44;;;;;;;4.28;1.48;;;33.10;51.10;;;;;;5072176;28;20211;-63
2023/07/21 08:10:11;;;;;;;3.58;1.88;;;33.10;51.20;;;;;;5072233;28;20228;-62
2023/07/21 08:12:37;;;;;;;6.80;1.98;;;32.50;51.40;;;;;;5060418;28;20953;-56
2023/07/21 08:15:05;;;;;;;2.83;1.65;;;31.30;53.30;;;;;;5047937;28;20729;-62
2023/07/21 08:17:36;;;;;;;6.80;1.80;;;30.70;54.60;;;;;;5052085;28;20202;-61
2023/07/21 08:20:03;;;;;;;4.05;1.90;;;30.20;55.50;;;;;;5052209;28;20190;-59
2023/07/21 08:22:30;;;;;;;4.05;2.08;;;30.40;56.50;;;;;;5052292;28;20264;-58
2023/07/21 08:24:57;;;;;;;3.72;1.67;;;31.80;53.70;;;;;;5051702;28;20287;-59
2023/07/21 08:27:25;;;;;;;4.47;1.67;;;32.90;51.10;;;;;;5051415;28;20212;-58
2023/07/21 08:29:52;;;;;;;2.45;1.50;;;33.60;50.50;;;;;;5051829;28;20752;-59
2023/07/21 08:32:19;;;;;;;5.65;1.70;;;34.30;49.60;;;;;;5051868;28;20529;-63
2023/07/21 08:34:47;;;;;;;3.58;1.50;;;35.30;47.20;;;;;;5051742;28;20225;-60
2023/07/21 08:37:13;;;;;;;1.70;1.33;;;36.00;46.30;;;;;;5051586;28;20210;-63
2023/07/21 08:39:41;;;;;;;3.10;1.52;;;36.80;46.10;;;;;;5051470;28;20515;-59
2023/07/21 08:42:11;;;;;;;3.67;1.48;;;38.30;43.20;;;;;;5051741;28;20206;-56
2023/07/21 08:44:38;;;;;;;2.72;1.45;;;39.20;42.10;;;;;;5051406;28;20312;-56
2023/07/21 08:47:05;;;;;;;3.97;1.85;;;39.70;41.10;;;;;;5051034;28;20209;-60
2023/07/21 08:49:32;;;;;;;3.58;1.55;;;39.70;40.90;;;;;;5051963;28;20225;-57
2023/07/21 08:52:00;;;;;;;5.50;1.50;;;38.70;41.00;;;;;;5051350;28;20583;-56
2023/07/21 08:54:27;;;;;;;4.45;1.30;;;37.30;42.60;;;;;;5051336;28;20228;-59
2023/07/21 08:56:53;;;;;;;4.18;1.27;;;35.50;43.40;;;;;;5051335;28;20266;-56
2023/07/21 08:59:20;;;;;;;2.20;1.23;;;34.50;45.20;;;;;;5052437;28;20206;-62
2023/07/21 09:01:47;;;;;;;3.17;1.25;;;33.50;46.10;;;;;;5051624;28;20561;-61
2023/07/21 09:04:18;;;;;;;2.40;1.20;;;32.90;46.30;;;;;;5051721;28;20229;-59
2023/07/21 09:06:50;;;;;;;2.40;1.40;;;32.70;46.20;;;;;;5051234;28;20233;-59
2023/07/21 09:09:19;;;;;;;3.83;1.35;;;32.10;46.60;;;;;;5051081;28;20269;-60
2023/07/21 09:11:47;;;;;;;2.25;1.27;;;31.00;47.60;;;;;;5051085;28;20220;-56
2023/07/21 09:14:13;;;;;;;3.63;1.33;;;30.50;46.50;;;;;;5050761;28;20250;-56
2023/07/21 09:16:40;;;;;;;2.80;1.23;;;29.90;48.50;;;;;;5050611;28;20217;-65
2023/07/21 09:19:08;;;;;;;3.13;1.65;;;29.60;49.20;;;;;;5051008;28;20799;-57
2023/07/21 09:21:36;;;;;;;1.95;1.30;;;30.10;48.70;;;;;;5051191;28;20205;-56
2023/07/21 09:24:04;;;;;;;2.85;1.40;;;30.70;46.90;;;;;;5050850;28;20230;-61
2023/07/21 09:26:33;;;;;;;3.28;1.40;;;31.00;46.40;;;;;;5052218;28;20205;-59
2023/07/21 09:29:00;;;;;;;1.75;1.10;;;31.00;46.10;;;;;;5051735;28;20201;-65
2023/07/21 09:31:31;;;;;;;2.08;1.17;;;30.50;46.50;;;;;;5050921;28;20542;-57
2023/07/21 09:34:06;;;;;;;2.90;1.45;;;29.90;47.90;;;;;;5052083;28;20308;-56
2023/07/21 09:36:33;;;;;;;4.18;1.58;;;29.50;48.30;;;;;;5052319;28;20209;-56
2023/07/21 09:39:02;;;;;;;5.35;1.38;;;29.10;49.00;;;;;;5051559;28;20201;-63
2023/07/21 09:41:33;;;;;;;4.75;1.55;;;28.70;49.70;;;;;;5051155;28;20205;-57
2023/07/21 09:44:00;;;;;;;2.45;1.30;;;28.40;50.40;;;;;;5050960;28;20240;-56
2023/07/21 09:46:27;;;;;;;2.60;1.20;;;28.20;51.80;;;;;;5050851;28;20205;-61
2023/07/21 09:48:54;;;;;;;1.83;1.05;;;27.90;51.90;;;;;;5051223;28;20217;-59
2023/07/21 09:51:21;;;;;;;1.30;0.90;;;27.60;52.30;;;;;;5050628;28;20261;-61
2023/07/21 09:53:53;;;;;;;1.55;1.30;;;27.40;51.70;;;;;;5050613;28;20474;-53
2023/07/21 09:56:21;;;;;;;2.63;1.20;;;27.10;52.50;;;;;;5051467;28;20206;-64
2023/07/21 09:58:52;;;;;;;1.88;1.17;;;26.90;53.10;;;;;;5053408;28;20217;-54
2023/07/21 10:01:19;;;;;;;2.40;1.45;;;26.80;53.10;;;;;;5054665;28;20201;-55
2023/07/21 10:03:46;;;;;;;2.35;1.20;;;26.70;53.00;;;;;;5054629;28;20233;-54
2023/07/21 10:06:14;;;;;;;2.42;1.38;;;26.70;53.00;;;;;;5054055;28;20201;-55
2023/07/21 10:08:42;;;;;;;3.80;1.50;;;26.70;54.10;;;;;;5054723;28;20617;-65
2023/07/21 10:11:09;;;;;;;2.92;1.52;;;27.00;54.20;;;;;;5054580;28;20232;-55
2023/07/21 10:13:44;;;;;;;2.28;1.30;;;27.50;53.80;;;;;;5054008;28;20220;-55
2023/07/21 10:16:12;;;;;;;2.08;1.30;;;27.40;53.20;;;;;;5053964;28;20619;-55
2023/07/21 10:19:00;;;;;;;1.77;1.10;;;27.00;54.00;;;;;;5054158;28;20791;-54
2023/07/21 10:21:31;;;;;;;1.65;1.17;;;26.70;54.50;;;;;;5054788;28;20229;-56
2023/07/21 10:24:00;;;;;;;2.17;1.10;;;26.50;55.10;;;;;;5054445;28;20252;-57
2023/07/21 10:26:30;;;;;;;4.22;1.42;;;26.50;55.30;;;;;;5054335;28;20229;-59
2023/07/21 10:29:14;;;;;;;3.38;1.23;;;26.50;54.90;;;;;;5054725;28;20287;-56
2023/07/21 10:31:51;;;;;;;1.60;1.15;;;26.50;54.90;;;;;;5054691;28;20209;-57
2023/07/21 10:34:18;;;;;;;3.35;1.40;;;26.50;54.60;;;;;;5054224;28;20270;-58
2023/07/21 10:36:49;;;;;;;2.50;1.55;;;26.60;54.70;;;;;;5054072;28;20252;-56
2023/07/21 10:39:20;;;;;;;2.13;1.38;;;26.60;54.30;;;;;;5054434;28;20205;-56
2023/07/21 10:41:47;;;;;;;1.83;1.30;;;26.70;53.70;;;;;;5054966;28;20598;-55
2023/07/21 10:44:14;;;;;;;1.27;1.00;;;26.90;53.90;;;;;;5054086;28;20229;-53
2023/07/21 10:46:44;;;;;;;1.80;1.23;;;26.80;54.00;;;;;;5053858;28;20484;-53
2023/07/21 10:49:12;;;;;;;3.20;1.40;;;26.80;53.90;;;;;;5053892;28;20232;-63
2023/07/21 10:51:39;;;;;;;3.90;1.60;;;27.00;53.50;;;;;;5053619;28;20305;-54
2023/07/21 10:54:06;;;;;;;2.08;1.38;;;27.10;53.20;;;;;;5053673;28;20264;-65
2023/07/21 10:56:34;;;;;;;3.28;2.97;;;27.10;52.90;;;;;;5053842;28;20212;-62
2023/07/21 10:59:01;;;;;;;3.13;1.38;;;27.10;52.80;;;;;;5053965;28;20240;-59
2023/07/21 11:01:28;;;;;;;1.45;1.20;;;27.10;52.80;;;;;;5054066;28;20208;-56
2023/07/21 11:03:57;;;;;;;2.08;1.30;;;27.10;54.20;;;;;;5053519;28;20225;-53
2023/07/21 11:06:24;;;;;;;2.97;1.30;;;27.30;53.70;;;;;;5053195;28;20210;-55
2023/07/21 11:08:50;;;;;;;3.55;1.38;;;27.50;52.90;;;;;;5052924;28;20209;-53
2023/07/21 11:11:17;;;;;;;2.92;1.63;;;28.00;53.20;;;;;;5053875;28;20225;-52
2023/07/21 11:13:44;;;;;;;1.63;1.20;;;28.50;51.40;;;;;;5053602;28;20225;-52
2023/07/21 11:16:11;;;;;;;2.42;1.50;;;29.10;50.80;;;;;;5053446;28;20208;-53
2023/07/21 11:18:42;;;;;;;3.85;1.20;;;29.70;50.20;;;;;;5053730;28;20207;-53
2023/07/21 11:21:10;;;;;;;2.28;1.33;;;30.20;49.00;;;;;;5053375;28;20317;-52
2023/07/21 11:23:37;;;;;;;1.77;1.20;;;30.70;48.20;;;;;;5053261;28;20240;-52
2023/07/21 11:26:07;;;;;;;1.83;1.25;;;30.90;47.50;;;;;;5053258;28;20216;-53
2023/07/21 11:28:34;;;;;;;3.63;1.40;;;31.10;47.10;;;;;;5053263;28;20205;-53
2023/07/21 11:31:02;;;;;;;1.98;1.20;;;31.00;47.20;;;;;;5053483;28;20221;-52
2023/07/21 11:33:43;;;;;;;2.33;1.30;;;30.80;47.70;;;;;;5053304;28;20201;-54
2023/07/21 11:36:19;;;;;;;2.63;1.30;;;30.30;48.50;;;;;;5053190;28;20209;-53
2023/07/21 11:39:02;;;;;;;2.42;1.40;;;30.00;49.10;;;;;;5053366;28;20213;-53
2023/07/21 11:41:47;;;;;;;4.95;1.50;;;30.30;49.40;;;;;;5051415;28;20258;-55
2023/07/21 11:44:19;;;;;;;3.90;1.55;;;30.80;48.40;;;;;;5053533;28;20316;-53
2023/07/21 11:46:54;;;;;;;4.65;1.50;;;31.20;48.20;;;;;;5053156;28;20217;-52
2023/07/21 11:49:22;;;;;;;5.15;1.58;;;31.40;47.60;;;;;;5053639;28;20262;-52
2023/07/21 11:51:51;;;;;;;3.58;1.30;;;31.50;47.60;;;;;;5053319;28;20232;-52
2023/07/21 11:54:21;;;;;;;1.45;1.33;;;31.60;47.50;;;;;;5053230;28;20228;-52
2023/07/21 11:56:48;;;;;;;1.58;1.10;;;31.50;47.10;;;;;;5052751;28;20218;-53
2023/07/21 11:59:15;;;;;;;3.30;1.45;;;31.50;46.70;;;;;;5053738;28;20210;-55
2023/07/21 12:01:42;;;;;;;1.63;1.35;;;31.50;47.20;;;;;;5053152;28;20205;-53
2023/07/21 12:04:09;;;;;;;2.45;1.17;;;31.30;47.40;;;;;;5052931;28;20225;-52
2023/07/21 12:06:36;;;;;;;1.75;1.05;;;31.20;48.00;;;;;;5052667;28;20553;-52
2023/07/21 12:09:06;;;;;;;2.28;1.63;;;31.30;47.70;;;;;;5052714;28;20209;-52
2023/07/21 12:11:33;;;;;;;1.98;1.35;;;31.30;47.80;;;;;;5053449;28;20225;-53
2023/07/21 12:14:00;;;;;;;2.75;1.38;;;31.10;48.00;;;;;;5053011;28;20233;-53
2023/07/21 12:16:29;;;;;;;3.75;1.38;;;30.90;48.00;;;;;;5052881;28;20212;-53
2023/07/21 12:18:56;;;;;;;6.10;1.52;;;30.70;48.40;;;;;;5053270;28;20244;-53
2023/07/21 12:21:23;;;;;;;2.58;1.33;;;30.30;48.80;;;;;;5052620;28;20205;-52
2023/07/21 12:23:50;;;;;;;2.10;1.35;;;30.10;49.30;;;;;;5053615;28;20268;-56
2023/07/21 12:26:19;;;;;;;2.50;1.70;;;30.00;49.80;;;;;;5052984;28;20220;-57
2023/07/21 12:28:48;;;;;;;2.83;1.67;;;30.00;49.40;;;;;;5053288;28;20385;-56
2023/07/21 12:31:15;;;;;;;1.70;1.40;;;30.10;49.90;;;;;;5053239;28;20602;-56
2023/07/21 12:33:42;;;;;;;2.80;1.15;;;30.10;49.90;;;;;;5052781;28;20327;-55
2023/07/21 12:36:10;;;;;;;2.13;1.40;;;29.90;49.90;;;;;;5051848;28;20325;-56
2023/07/21 12:38:36;;;;;;;2.10;1.38;;;30.20;50.00;;;;;;5052249;28;20592;-56
2023/07/21 12:41:03;;;;;;;3.58;1.40;;;30.40;49.50;;;;;;5052276;28;20229;-57
2023/07/21 12:43:31;;;;;;;2.70;1.30;;;30.40;49.50;;;;;;5052276;28;20212;-57
2023/07/21 12:45:58;;;;;;;2.72;1.50;;;30.50;49.30;;;;;;5051766;28;20409;-58
2023/07/21 12:48:25;;;;;;;2.25;1.50;;;30.50;49.70;;;;;;5051988;28;20562;-55
2023/07/21 12:50:51;;;;;;;2.00;1.80;;;30.60;49.30;;;;;;5052749;28;20225;-57